sensor_id;sensor_type;location;lat;lon;timestamp;P1;durP1;ratioP1;P2;durP2;ratioP2
59788;SDS011;47353;51.614;5.530;2022-09-13T00:02:09;14.57;;;11.52;;
59788;SDS011;47353;51.614;5.530;2022-09-13T00:04:34;17.80;;;11.80;;
59788;SDS011;47353;51.614;5.530;2022-09-13T00:07:00;18.88;;;11.00;;
59788;SDS011;47353;51.614;5.530;2022-09-13T00:09:25;14.43;;;11.15;;
59788;SDS011;47353;51.614;5.530;2022-09-13T00:11:51;12.13;;;10.38;;
59788;SDS011;47353;51.614;5.530;2022-09-13T00:14:16;14.07;;;10.65;;
59788;SDS011;47353;51.614;5.530;2022-09-13T00:16:41;12.88;;;10.32;;
59788;SDS011;47353;51.614;5.530;2022-09-13T00:19:07;16.23;;;10.05;;
59788;SDS011;47353;51.614;5.530;2022-09-13T00:21:32;12.23;;;10.02;;
59788;SDS011;47353;51.614;5.530;2022-09-13T00:23:57;14.38;;;10.27;;
59788;SDS011;47353;51.614;5.530;2022-09-13T00:26:24;15.02;;;9.82;;
59788;SDS011;47353;51.614;5.530;2022-09-13T00:28:55;10.65;;;9.50;;
59788;SDS011;47353;51.614;5.530;2022-09-13T00:31:22;12.52;;;10.15;;
59788;SDS011;47353;51.614;5.530;2022-09-13T00:33:51;12.05;;;9.55;;
59788;SDS011;47353;51.614;5.530;2022-09-13T00:36:17;14.27;;;9.55;;
59788;SDS011;47353;51.614;5.530;2022-09-13T00:38:43;13.50;;;9.82;;
59788;SDS011;47353;51.614;5.530;2022-09-13T00:41:15;12.18;;;10.43;;
59788;SDS011;47353;51.614;5.530;2022-09-13T00:48:52;12.60;;;10.23;;
59788;SDS011;47353;51.614;5.530;2022-09-13T00:53:50;13.43;;;9.95;;
59788;SDS011;47353;51.614;5.530;2022-09-13T00:56:24;14.95;;;10.10;;
59788;SDS011;47353;51.614;5.530;2022-09-13T00:59:07;12.00;;;9.93;;
59788;SDS011;47353;51.614;5.530;2022-09-13T01:01:43;11.98;;;9.90;;
59788;SDS011;47353;51.614;5.530;2022-09-13T01:04:12;12.93;;;9.85;;
59788;SDS011;47353;51.614;5.530;2022-09-13T01:06:39;15.05;;;10.00;;
59788;SDS011;47353;51.614;5.530;2022-09-13T01:09:06;13.02;;;10.05;;
59788;SDS011;47353;51.614;5.530;2022-09-13T01:14:28;15.10;;;9.63;;
59788;SDS011;47353;51.614;5.530;2022-09-13T01:16:55;13.13;;;9.52;;
59788;SDS011;47353;51.614;5.530;2022-09-13T01:19:20;11.32;;;10.07;;
59788;SDS011;47353;51.614;5.530;2022-09-13T01:50:36;11.13;;;9.00;;
59788;SDS011;47353;51.614;5.530;2022-09-13T01:55:43;12.10;;;9.60;;
59788;SDS011;47353;51.614;5.530;2022-09-13T01:58:21;12.77;;;9.50;;
59788;SDS011;47353;51.614;5.530;2022-09-13T02:01:02;11.45;;;9.50;;
59788;SDS011;47353;51.614;5.530;2022-09-13T02:03:37;14.27;;;9.95;;
59788;SDS011;47353;51.614;5.530;2022-09-13T02:06:20;10.05;;;8.75;;
59788;SDS011;47353;51.614;5.530;2022-09-13T02:08:54;11.98;;;9.15;;
59788;SDS011;47353;51.614;5.530;2022-09-13T02:11:25;13.63;;;9.30;;
59788;SDS011;47353;51.614;5.530;2022-09-13T02:16:29;10.88;;;9.25;;
59788;SDS011;47353;51.614;5.530;2022-09-13T02:18:59;14.35;;;9.23;;
59788;SDS011;47353;51.614;5.530;2022-09-13T02:21:38;13.75;;;9.00;;
59788;SDS011;47353;51.614;5.530;2022-09-13T02:24:10;13.45;;;9.57;;
59788;SDS011;47353;51.614;5.530;2022-09-13T02:26:40;13.18;;;9.70;;
59788;SDS011;47353;51.614;5.530;2022-09-13T02:29:10;11.80;;;9.45;;
59788;SDS011;47353;51.614;5.530;2022-09-13T02:31:47;11.70;;;9.30;;
59788;SDS011;47353;51.614;5.530;2022-09-13T02:34:21;12.77;;;9.18;;
59788;SDS011;47353;51.614;5.530;2022-09-13T02:36:51;11.23;;;9.52;;
59788;SDS011;47353;51.614;5.530;2022-09-13T02:39:19;14.48;;;9.98;;
59788;SDS011;47353;51.614;5.530;2022-09-13T02:41:53;14.93;;;9.75;;
59788;SDS011;47353;51.614;5.530;2022-09-13T02:47:10;12.20;;;9.90;;
59788;SDS011;47353;51.614;5.530;2022-09-13T02:50:02;16.50;;;9.88;;
59788;SDS011;47353;51.614;5.530;2022-09-13T02:58:18;12.30;;;10.38;;
59788;SDS011;47353;51.614;5.530;2022-09-13T03:00:58;12.05;;;10.13;;
59788;SDS011;47353;51.614;5.530;2022-09-13T03:03:24;11.70;;;9.50;;
59788;SDS011;47353;51.614;5.530;2022-09-13T03:05:49;12.60;;;10.25;;
59788;SDS011;47353;51.614;5.530;2022-09-13T03:08:15;14.48;;;10.32;;
59788;SDS011;47353;51.614;5.530;2022-09-13T03:10:45;12.48;;;9.75;;
59788;SDS011;47353;51.614;5.530;2022-09-13T03:13:23;13.55;;;9.98;;
59788;SDS011;47353;51.614;5.530;2022-09-13T03:19:01;13.57;;;9.52;;
59788;SDS011;47353;51.614;5.530;2022-09-13T03:30:15;10.43;;;9.23;;
59788;SDS011;47353;51.614;5.530;2022-09-13T03:33:44;11.88;;;9.52;;
59788;SDS011;47353;51.614;5.530;2022-09-13T03:41:26;11.90;;;9.23;;
59788;SDS011;47353;51.614;5.530;2022-09-13T03:43:58;13.15;;;9.45;;
59788;SDS011;47353;51.614;5.530;2022-09-13T03:49:08;13.57;;;9.00;;
59788;SDS011;47353;51.614;5.530;2022-09-13T03:51:37;14.25;;;9.27;;
59788;SDS011;47353;51.614;5.530;2022-09-13T03:54:05;11.10;;;9.18;;
59788;SDS011;47353;51.614;5.530;2022-09-13T03:56:36;12.85;;;9.50;;
59788;SDS011;47353;51.614;5.530;2022-09-13T03:59:01;11.95;;;9.57;;
59788;SDS011;47353;51.614;5.530;2022-09-13T04:01:27;12.95;;;9.55;;
59788;SDS011;47353;51.614;5.530;2022-09-13T04:03:52;12.68;;;9.40;;
59788;SDS011;47353;51.614;5.530;2022-09-13T04:06:18;14.05;;;9.57;;
59788;SDS011;47353;51.614;5.530;2022-09-13T04:08:43;11.70;;;9.48;;
59788;SDS011;47353;51.614;5.530;2022-09-13T04:11:09;13.52;;;10.27;;
59788;SDS011;47353;51.614;5.530;2022-09-13T04:13:35;14.45;;;10.30;;
59788;SDS011;47353;51.614;5.530;2022-09-13T04:16:05;14.00;;;9.50;;
59788;SDS011;47353;51.614;5.530;2022-09-13T04:18:31;13.50;;;10.25;;
59788;SDS011;47353;51.614;5.530;2022-09-13T04:20:57;16.88;;;10.25;;
59788;SDS011;47353;51.614;5.530;2022-09-13T04:23:24;16.48;;;12.38;;
59788;SDS011;47353;51.614;5.530;2022-09-13T04:25:51;14.02;;;10.68;;
59788;SDS011;47353;51.614;5.530;2022-09-13T04:28:17;13.02;;;9.68;;
59788;SDS011;47353;51.614;5.530;2022-09-13T04:30:44;15.73;;;10.88;;
59788;SDS011;47353;51.614;5.530;2022-09-13T04:33:10;14.45;;;11.20;;
59788;SDS011;47353;51.614;5.530;2022-09-13T04:35:36;13.43;;;11.45;;
59788;SDS011;47353;51.614;5.530;2022-09-13T04:38:03;18.20;;;11.75;;
59788;SDS011;47353;51.614;5.530;2022-09-13T04:40:29;14.02;;;11.27;;
59788;SDS011;47353;51.614;5.530;2022-09-13T04:42:54;19.63;;;12.13;;
59788;SDS011;47353;51.614;5.530;2022-09-13T04:45:19;15.05;;;10.93;;
59788;SDS011;47353;51.614;5.530;2022-09-13T04:47:49;15.68;;;11.73;;
59788;SDS011;47353;51.614;5.530;2022-09-13T04:50:19;14.88;;;11.55;;
59788;SDS011;47353;51.614;5.530;2022-09-13T04:52:45;17.52;;;12.10;;
59788;SDS011;47353;51.614;5.530;2022-09-13T04:55:11;14.93;;;11.75;;
59788;SDS011;47353;51.614;5.530;2022-09-13T04:57:38;13.45;;;11.23;;
59788;SDS011;47353;51.614;5.530;2022-09-13T05:00:04;16.33;;;11.73;;
59788;SDS011;47353;51.614;5.530;2022-09-13T05:02:31;15.10;;;12.63;;
59788;SDS011;47353;51.614;5.530;2022-09-13T05:04:56;17.98;;;11.90;;
59788;SDS011;47353;51.614;5.530;2022-09-13T05:07:22;14.13;;;11.82;;
59788;SDS011;47353;51.614;5.530;2022-09-13T05:09:47;13.80;;;11.40;;
59788;SDS011;47353;51.614;5.530;2022-09-13T05:12:12;18.48;;;11.13;;
59788;SDS011;47353;51.614;5.530;2022-09-13T05:14:38;16.83;;;11.23;;
59788;SDS011;47353;51.614;5.530;2022-09-13T05:17:04;17.15;;;11.65;;
59788;SDS011;47353;51.614;5.530;2022-09-13T05:19:29;17.73;;;11.55;;
59788;SDS011;47353;51.614;5.530;2022-09-13T05:21:54;15.02;;;12.13;;
59788;SDS011;47353;51.614;5.530;2022-09-13T05:24:20;16.40;;;12.25;;
59788;SDS011;47353;51.614;5.530;2022-09-13T05:26:45;19.35;;;12.57;;
59788;SDS011;47353;51.614;5.530;2022-09-13T05:29:10;14.32;;;11.80;;
59788;SDS011;47353;51.614;5.530;2022-09-13T05:31:38;16.20;;;11.88;;
59788;SDS011;47353;51.614;5.530;2022-09-13T05:34:06;16.52;;;13.23;;
59788;SDS011;47353;51.614;5.530;2022-09-13T05:36:34;20.35;;;11.98;;
59788;SDS011;47353;51.614;5.530;2022-09-13T05:39:00;15.70;;;11.88;;
59788;SDS011;47353;51.614;5.530;2022-09-13T05:41:27;15.80;;;12.13;;
59788;SDS011;47353;51.614;5.530;2022-09-13T05:43:53;15.00;;;12.07;;
59788;SDS011;47353;51.614;5.530;2022-09-13T05:46:19;16.38;;;12.68;;
59788;SDS011;47353;51.614;5.530;2022-09-13T05:48:45;17.90;;;12.52;;
59788;SDS011;47353;51.614;5.530;2022-09-13T05:51:13;18.83;;;12.32;;
59788;SDS011;47353;51.614;5.530;2022-09-13T05:53:47;17.27;;;12.60;;
59788;SDS011;47353;51.614;5.530;2022-09-13T05:56:15;20.02;;;12.63;;
59788;SDS011;47353;51.614;5.530;2022-09-13T05:58:43;17.38;;;12.20;;
59788;SDS011;47353;51.614;5.530;2022-09-13T06:01:11;18.52;;;12.30;;
59788;SDS011;47353;51.614;5.530;2022-09-13T06:03:37;15.80;;;12.15;;
59788;SDS011;47353;51.614;5.530;2022-09-13T06:06:03;18.02;;;12.43;;
59788;SDS011;47353;51.614;5.530;2022-09-13T06:08:30;17.75;;;13.02;;
59788;SDS011;47353;51.614;5.530;2022-09-13T06:10:58;17.25;;;12.88;;
59788;SDS011;47353;51.614;5.530;2022-09-13T06:13:31;16.77;;;13.07;;
59788;SDS011;47353;51.614;5.530;2022-09-13T06:15:58;19.83;;;13.38;;
59788;SDS011;47353;51.614;5.530;2022-09-13T06:18:24;18.33;;;13.45;;
59788;SDS011;47353;51.614;5.530;2022-09-13T06:20:50;17.25;;;12.70;;
59788;SDS011;47353;51.614;5.530;2022-09-13T06:23:21;17.20;;;12.63;;
59788;SDS011;47353;51.614;5.530;2022-09-13T06:25:46;19.10;;;13.00;;
59788;SDS011;47353;51.614;5.530;2022-09-13T06:28:11;17.98;;;13.55;;
59788;SDS011;47353;51.614;5.530;2022-09-13T06:30:37;18.60;;;13.52;;
59788;SDS011;47353;51.614;5.530;2022-09-13T06:33:02;19.00;;;14.02;;
59788;SDS011;47353;51.614;5.530;2022-09-13T06:35:28;23.20;;;14.35;;
59788;SDS011;47353;51.614;5.530;2022-09-13T06:37:54;21.55;;;13.43;;
59788;SDS011;47353;51.614;5.530;2022-09-13T06:40:21;19.58;;;13.60;;
59788;SDS011;47353;51.614;5.530;2022-09-13T06:42:47;21.88;;;13.88;;
59788;SDS011;47353;51.614;5.530;2022-09-13T06:45:13;20.40;;;13.73;;
59788;SDS011;47353;51.614;5.530;2022-09-13T06:47:38;21.42;;;13.93;;
59788;SDS011;47353;51.614;5.530;2022-09-13T06:50:04;21.63;;;14.43;;
59788;SDS011;47353;51.614;5.530;2022-09-13T06:52:29;23.80;;;15.15;;
59788;SDS011;47353;51.614;5.530;2022-09-13T06:54:55;24.27;;;15.20;;
59788;SDS011;47353;51.614;5.530;2022-09-13T06:57:20;20.08;;;15.25;;
59788;SDS011;47353;51.614;5.530;2022-09-13T06:59:46;20.92;;;15.65;;
59788;SDS011;47353;51.614;5.530;2022-09-13T07:02:11;19.00;;;15.85;;
59788;SDS011;47353;51.614;5.530;2022-09-13T07:04:38;22.75;;;16.90;;
59788;SDS011;47353;51.614;5.530;2022-09-13T07:07:04;20.13;;;16.38;;
59788;SDS011;47353;51.614;5.530;2022-09-13T07:09:29;20.67;;;16.75;;
59788;SDS011;47353;51.614;5.530;2022-09-13T07:11:55;20.00;;;16.45;;
59788;SDS011;47353;51.614;5.530;2022-09-13T07:14:22;22.23;;;16.70;;
59788;SDS011;47353;51.614;5.530;2022-09-13T07:16:48;19.60;;;15.90;;
59788;SDS011;47353;51.614;5.530;2022-09-13T07:19:19;27.50;;;18.20;;
59788;SDS011;47353;51.614;5.530;2022-09-13T07:21:50;21.83;;;16.67;;
59788;SDS011;47353;51.614;5.530;2022-09-13T07:24:16;22.75;;;16.75;;
59788;SDS011;47353;51.614;5.530;2022-09-13T07:26:42;24.17;;;16.17;;
59788;SDS011;47353;51.614;5.530;2022-09-13T07:29:10;24.95;;;17.20;;
59788;SDS011;47353;51.614;5.530;2022-09-13T07:31:39;31.75;;;18.30;;
59788;SDS011;47353;51.614;5.530;2022-09-13T07:34:07;33.35;;;18.08;;
59788;SDS011;47353;51.614;5.530;2022-09-13T07:36:36;29.00;;;16.75;;
59788;SDS011;47353;51.614;5.530;2022-09-13T07:39:02;30.33;;;16.85;;
59788;SDS011;47353;51.614;5.530;2022-09-13T07:41:29;25.23;;;17.05;;
59788;SDS011;47353;51.614;5.530;2022-09-13T07:43:56;28.10;;;17.27;;
59788;SDS011;47353;51.614;5.530;2022-09-13T07:46:23;26.52;;;17.70;;
59788;SDS011;47353;51.614;5.530;2022-09-13T07:48:51;25.70;;;17.58;;
59788;SDS011;47353;51.614;5.530;2022-09-13T07:51:20;27.98;;;18.17;;
59788;SDS011;47353;51.614;5.530;2022-09-13T07:53:48;26.98;;;18.33;;
59788;SDS011;47353;51.614;5.530;2022-09-13T07:56:16;24.45;;;17.67;;
59788;SDS011;47353;51.614;5.530;2022-09-13T07:58:47;23.40;;;17.77;;
59788;SDS011;47353;51.614;5.530;2022-09-13T08:01:20;24.50;;;19.67;;
59788;SDS011;47353;51.614;5.530;2022-09-13T08:03:51;25.77;;;19.88;;
59788;SDS011;47353;51.614;5.530;2022-09-13T08:06:16;19.63;;;15.02;;
59788;SDS011;47353;51.614;5.530;2022-09-13T08:08:42;24.83;;;18.75;;
59788;SDS011;47353;51.614;5.530;2022-09-13T08:11:07;23.75;;;17.95;;
59788;SDS011;47353;51.614;5.530;2022-09-13T08:13:37;20.88;;;16.75;;
59788;SDS011;47353;51.614;5.530;2022-09-13T08:16:04;18.75;;;15.00;;
59788;SDS011;47353;51.614;5.530;2022-09-13T08:18:30;23.90;;;18.48;;
59788;SDS011;47353;51.614;5.530;2022-09-13T08:20:56;23.63;;;18.08;;
59788;SDS011;47353;51.614;5.530;2022-09-13T08:23:23;21.92;;;17.08;;
59788;SDS011;47353;51.614;5.530;2022-09-13T08:25:48;21.88;;;17.38;;
59788;SDS011;47353;51.614;5.530;2022-09-13T08:28:15;21.05;;;18.27;;
59788;SDS011;47353;51.614;5.530;2022-09-13T08:30:42;28.23;;;19.67;;
59788;SDS011;47353;51.614;5.530;2022-09-13T08:33:09;24.27;;;19.02;;
59788;SDS011;47353;51.614;5.530;2022-09-13T08:35:36;22.58;;;17.85;;
59788;SDS011;47353;51.614;5.530;2022-09-13T08:38:02;21.83;;;18.55;;
59788;SDS011;47353;51.614;5.530;2022-09-13T08:40:39;24.17;;;18.60;;
59788;SDS011;47353;51.614;5.530;2022-09-13T08:43:10;21.65;;;16.63;;
59788;SDS011;47353;51.614;5.530;2022-09-13T08:46:04;21.25;;;16.65;;
59788;SDS011;47353;51.614;5.530;2022-09-13T08:48:38;20.45;;;17.90;;
59788;SDS011;47353;51.614;5.530;2022-09-13T08:51:10;20.88;;;18.38;;
59788;SDS011;47353;51.614;5.530;2022-09-13T08:53:53;22.02;;;18.00;;
59788;SDS011;47353;51.614;5.530;2022-09-13T08:56:22;23.75;;;19.08;;
59788;SDS011;47353;51.614;5.530;2022-09-13T09:01:37;21.40;;;16.40;;
59788;SDS011;47353;51.614;5.530;2022-09-13T09:07:10;22.30;;;16.40;;
59788;SDS011;47353;51.614;5.530;2022-09-13T09:10:14;18.17;;;14.18;;
59788;SDS011;47353;51.614;5.530;2022-09-13T09:12:49;20.17;;;15.43;;
59788;SDS011;47353;51.614;5.530;2022-09-13T09:18:03;18.25;;;14.88;;
59788;SDS011;47353;51.614;5.530;2022-09-13T09:20:31;14.98;;;13.20;;
59788;SDS011;47353;51.614;5.530;2022-09-13T09:23:04;18.02;;;15.82;;
59788;SDS011;47353;51.614;5.530;2022-09-13T09:28:15;17.70;;;13.10;;
59788;SDS011;47353;51.614;5.530;2022-09-13T09:30:45;15.13;;;12.75;;
59788;SDS011;47353;51.614;5.530;2022-09-13T09:39:10;14.30;;;11.68;;
59788;SDS011;47353;51.614;5.530;2022-09-13T09:41:38;13.18;;;11.25;;
59788;SDS011;47353;51.614;5.530;2022-09-13T09:46:38;15.70;;;12.27;;
59788;SDS011;47353;51.614;5.530;2022-09-13T09:57:53;16.52;;;12.68;;
59788;SDS011;47353;51.614;5.530;2022-09-13T10:00:19;15.82;;;11.88;;
59788;SDS011;47353;51.614;5.530;2022-09-13T10:02:47;12.65;;;10.23;;
59788;SDS011;47353;51.614;5.530;2022-09-13T10:05:19;11.43;;;10.23;;
59788;SDS011;47353;51.614;5.530;2022-09-13T10:07:57;13.18;;;9.32;;
59788;SDS011;47353;51.614;5.530;2022-09-13T10:13:03;11.93;;;8.70;;
59788;SDS011;47353;51.614;5.530;2022-09-13T10:15:32;13.55;;;7.82;;
59788;SDS011;47353;51.614;5.530;2022-09-13T10:18:15;10.20;;;7.43;;
59788;SDS011;47353;51.614;5.530;2022-09-13T10:20:42;9.97;;;7.70;;
59788;SDS011;47353;51.614;5.530;2022-09-13T10:23:23;11.88;;;7.47;;
59788;SDS011;47353;51.614;5.530;2022-09-13T10:25:56;10.23;;;6.63;;
59788;SDS011;47353;51.614;5.530;2022-09-13T10:28:26;8.63;;;5.93;;
59788;SDS011;47353;51.614;5.530;2022-09-13T10:31:01;10.82;;;6.88;;
59788;SDS011;47353;51.614;5.530;2022-09-13T10:36:20;8.63;;;6.93;;
59788;SDS011;47353;51.614;5.530;2022-09-13T10:38:58;19.88;;;9.00;;
59788;SDS011;47353;51.614;5.530;2022-09-13T10:41:26;13.13;;;7.85;;
59788;SDS011;47353;51.614;5.530;2022-09-13T10:43:58;24.88;;;9.20;;
59788;SDS011;47353;51.614;5.530;2022-09-13T10:46:26;15.85;;;8.40;;
59788;SDS011;47353;51.614;5.530;2022-09-13T10:48:55;14.80;;;7.63;;
59788;SDS011;47353;51.614;5.530;2022-09-13T10:51:32;10.65;;;6.80;;
59788;SDS011;47353;51.614;5.530;2022-09-13T10:56:39;7.43;;;6.15;;
59788;SDS011;47353;51.614;5.530;2022-09-13T11:05:03;7.30;;;6.35;;
59788;SDS011;47353;51.614;5.530;2022-09-13T11:10:56;7.28;;;5.82;;
59788;SDS011;47353;51.614;5.530;2022-09-13T11:13:54;9.60;;;6.25;;
59788;SDS011;47353;51.614;5.530;2022-09-13T11:19:14;8.35;;;6.63;;
59788;SDS011;47353;51.614;5.530;2022-09-13T11:24:44;9.85;;;6.78;;
59788;SDS011;47353;51.614;5.530;2022-09-13T11:29:46;10.70;;;6.30;;
59788;SDS011;47353;51.614;5.530;2022-09-13T11:38:30;7.03;;;5.32;;
59788;SDS011;47353;51.614;5.530;2022-09-13T11:46:41;9.95;;;6.57;;
59788;SDS011;47353;51.614;5.530;2022-09-13T11:57:18;11.27;;;7.13;;
59788;SDS011;47353;51.614;5.530;2022-09-13T12:00:05;11.10;;;8.10;;
59788;SDS011;47353;51.614;5.530;2022-09-13T12:05:10;7.90;;;5.80;;
59788;SDS011;47353;51.614;5.530;2022-09-13T12:07:42;9.27;;;6.90;;
59788;SDS011;47353;51.614;5.530;2022-09-13T12:10:28;9.45;;;7.10;;
59788;SDS011;47353;51.614;5.530;2022-09-13T12:13:01;8.88;;;6.95;;
59788;SDS011;47353;51.614;5.530;2022-09-13T12:15:31;9.23;;;6.85;;
59788;SDS011;47353;51.614;5.530;2022-09-13T12:20:41;8.40;;;4.95;;
59788;SDS011;47353;51.614;5.530;2022-09-13T12:23:14;7.25;;;5.43;;
59788;SDS011;47353;51.614;5.530;2022-09-13T12:25:49;9.68;;;6.15;;
59788;SDS011;47353;51.614;5.530;2022-09-13T12:31:18;10.15;;;6.80;;
59788;SDS011;47353;51.614;5.530;2022-09-13T12:33:47;9.20;;;6.78;;
59788;SDS011;47353;51.614;5.530;2022-09-13T12:36:32;8.40;;;6.72;;
59788;SDS011;47353;51.614;5.530;2022-09-13T12:39:36;7.53;;;6.72;;
59788;SDS011;47353;51.614;5.530;2022-09-13T12:48:11;8.88;;;6.28;;
59788;SDS011;47353;51.614;5.530;2022-09-13T12:51:14;6.53;;;5.88;;
59788;SDS011;47353;51.614;5.530;2022-09-13T12:56:47;8.13;;;5.50;;
59788;SDS011;47353;51.614;5.530;2022-09-13T12:59:22;8.55;;;5.28;;
59788;SDS011;47353;51.614;5.530;2022-09-13T13:01:59;5.97;;;4.80;;
59788;SDS011;47353;51.614;5.530;2022-09-13T13:04:31;9.38;;;6.10;;
59788;SDS011;47353;51.614;5.530;2022-09-13T13:07:04;5.88;;;5.28;;
59788;SDS011;47353;51.614;5.530;2022-09-13T13:09:58;6.95;;;5.10;;
59788;SDS011;47353;51.614;5.530;2022-09-13T13:14:49;5.25;;;4.15;;
59788;SDS011;47353;51.614;5.530;2022-09-13T13:23:18;4.53;;;3.65;;
59788;SDS011;47353;51.614;5.530;2022-09-13T13:34:19;8.25;;;5.10;;
59788;SDS011;47353;51.614;5.530;2022-09-13T13:36:47;7.50;;;4.80;;
59788;SDS011;47353;51.614;5.530;2022-09-13T13:46:45;5.97;;;3.20;;
59788;SDS011;47353;51.614;5.530;2022-09-13T13:57:33;5.78;;;2.95;;
59788;SDS011;47353;51.614;5.530;2022-09-13T14:00:21;6.15;;;3.00;;
59788;SDS011;47353;51.614;5.530;2022-09-13T14:13:42;4.15;;;2.20;;
59788;SDS011;47353;51.614;5.530;2022-09-13T14:19:03;4.00;;;2.80;;
59788;SDS011;47353;51.614;5.530;2022-09-13T14:24:50;6.28;;;2.45;;
59788;SDS011;47353;51.614;5.530;2022-09-13T14:27:22;5.82;;;2.20;;
59788;SDS011;47353;51.614;5.530;2022-09-13T14:29:53;4.93;;;2.90;;
59788;SDS011;47353;51.614;5.530;2022-09-13T14:32:23;7.35;;;2.28;;
59788;SDS011;47353;51.614;5.530;2022-09-13T14:34:58;3.75;;;2.13;;
59788;SDS011;47353;51.614;5.530;2022-09-13T14:37:32;4.32;;;2.10;;
59788;SDS011;47353;51.614;5.530;2022-09-13T14:42:41;4.90;;;2.42;;
59788;SDS011;47353;51.614;5.530;2022-09-13T14:45:12;5.70;;;2.53;;
59788;SDS011;47353;51.614;5.530;2022-09-13T14:47:54;6.20;;;2.38;;
59788;SDS011;47353;51.614;5.530;2022-09-13T14:50:29;4.68;;;2.20;;
59788;SDS011;47353;51.614;5.530;2022-09-13T14:53:03;4.35;;;2.20;;
59788;SDS011;47353;51.614;5.530;2022-09-13T14:55:37;3.28;;;1.90;;
59788;SDS011;47353;51.614;5.530;2022-09-13T14:58:12;5.25;;;2.22;;
59788;SDS011;47353;51.614;5.530;2022-09-13T15:00:45;3.55;;;2.03;;
59788;SDS011;47353;51.614;5.530;2022-09-13T15:03:15;4.47;;;1.90;;
59788;SDS011;47353;51.614;5.530;2022-09-13T15:05:48;4.20;;;1.83;;
59788;SDS011;47353;51.614;5.530;2022-09-13T15:10:57;4.00;;;1.80;;
59788;SDS011;47353;51.614;5.530;2022-09-13T15:13:23;3.05;;;1.50;;
59788;SDS011;47353;51.614;5.530;2022-09-13T15:15:50;2.63;;;1.60;;
59788;SDS011;47353;51.614;5.530;2022-09-13T15:21:00;4.57;;;1.55;;
59788;SDS011;47353;51.614;5.530;2022-09-13T15:28:32;3.67;;;1.80;;
59788;SDS011;47353;51.614;5.530;2022-09-13T15:31:01;3.50;;;1.50;;
59788;SDS011;47353;51.614;5.530;2022-09-13T15:33:31;5.75;;;1.80;;
59788;SDS011;47353;51.614;5.530;2022-09-13T15:41:54;2.83;;;2.10;;
59788;SDS011;47353;51.614;5.530;2022-09-13T15:44:21;3.83;;;2.10;;
59788;SDS011;47353;51.614;5.530;2022-09-13T15:46:54;4.22;;;2.10;;
59788;SDS011;47353;51.614;5.530;2022-09-13T15:49:24;6.75;;;2.30;;
59788;SDS011;47353;51.614;5.530;2022-09-13T15:51:55;5.00;;;2.78;;
59788;SDS011;47353;51.614;5.530;2022-09-13T15:54:38;4.90;;;2.47;;
59788;SDS011;47353;51.614;5.530;2022-09-13T15:57:06;3.83;;;2.42;;
59788;SDS011;47353;51.614;5.530;2022-09-13T15:59:44;3.42;;;2.40;;
59788;SDS011;47353;51.614;5.530;2022-09-13T16:02:22;6.88;;;2.65;;
59788;SDS011;47353;51.614;5.530;2022-09-13T16:04:50;5.72;;;2.80;;
59788;SDS011;47353;51.614;5.530;2022-09-13T16:07:16;5.60;;;2.80;;
59788;SDS011;47353;51.614;5.530;2022-09-13T16:09:42;4.32;;;2.60;;
59788;SDS011;47353;51.614;5.530;2022-09-13T16:12:09;4.32;;;2.47;;
59788;SDS011;47353;51.614;5.530;2022-09-13T16:14:34;4.95;;;2.97;;
59788;SDS011;47353;51.614;5.530;2022-09-13T16:17:01;4.85;;;3.10;;
59788;SDS011;47353;51.614;5.530;2022-09-13T16:19:47;6.70;;;3.00;;
59788;SDS011;47353;51.614;5.530;2022-09-13T16:22:13;7.57;;;3.30;;
59788;SDS011;47353;51.614;5.530;2022-09-13T16:24:39;7.72;;;2.58;;
59788;SDS011;47353;51.614;5.530;2022-09-13T16:27:04;4.32;;;3.10;;
59788;SDS011;47353;51.614;5.530;2022-09-13T16:29:30;5.38;;;2.70;;
59788;SDS011;47353;51.614;5.530;2022-09-13T16:31:55;4.63;;;3.40;;
59788;SDS011;47353;51.614;5.530;2022-09-13T16:34:23;5.38;;;3.30;;
59788;SDS011;47353;51.614;5.530;2022-09-13T16:36:49;4.60;;;2.90;;
59788;SDS011;47353;51.614;5.530;2022-09-13T16:39:14;4.05;;;3.03;;
59788;SDS011;47353;51.614;5.530;2022-09-13T16:41:40;6.88;;;2.97;;
59788;SDS011;47353;51.614;5.530;2022-09-13T16:44:05;4.72;;;3.40;;
59788;SDS011;47353;51.614;5.530;2022-09-13T16:46:31;7.93;;;3.35;;
59788;SDS011;47353;51.614;5.530;2022-09-13T16:48:57;5.78;;;3.20;;
59788;SDS011;47353;51.614;5.530;2022-09-13T16:51:23;5.03;;;2.67;;
59788;SDS011;47353;51.614;5.530;2022-09-13T16:53:50;3.63;;;2.90;;
59788;SDS011;47353;51.614;5.530;2022-09-13T16:56:16;4.03;;;3.28;;
59788;SDS011;47353;51.614;5.530;2022-09-13T16:58:43;6.22;;;2.97;;
59788;SDS011;47353;51.614;5.530;2022-09-13T17:01:13;5.32;;;3.30;;
59788;SDS011;47353;51.614;5.530;2022-09-13T17:03:41;7.47;;;4.38;;
59788;SDS011;47353;51.614;5.530;2022-09-13T17:06:07;5.00;;;3.00;;
59788;SDS011;47353;51.614;5.530;2022-09-13T17:08:35;8.65;;;3.17;;
59788;SDS011;47353;51.614;5.530;2022-09-13T17:11:06;6.45;;;3.15;;
59788;SDS011;47353;51.614;5.530;2022-09-13T17:13:33;5.05;;;2.75;;
59788;SDS011;47353;51.614;5.530;2022-09-13T17:15:59;5.35;;;2.83;;
59788;SDS011;47353;51.614;5.530;2022-09-13T17:18:25;7.88;;;3.10;;
59788;SDS011;47353;51.614;5.530;2022-09-13T17:20:51;4.90;;;2.97;;
59788;SDS011;47353;51.614;5.530;2022-09-13T17:23:16;6.22;;;3.00;;
59788;SDS011;47353;51.614;5.530;2022-09-13T17:25:42;7.03;;;3.08;;
59788;SDS011;47353;51.614;5.530;2022-09-13T17:28:14;4.85;;;2.83;;
59788;SDS011;47353;51.614;5.530;2022-09-13T17:30:41;5.35;;;2.70;;
59788;SDS011;47353;51.614;5.530;2022-09-13T17:33:08;5.93;;;2.80;;
59788;SDS011;47353;51.614;5.530;2022-09-13T17:35:34;5.60;;;2.50;;
59788;SDS011;47353;51.614;5.530;2022-09-13T17:38:00;3.85;;;2.30;;
59788;SDS011;47353;51.614;5.530;2022-09-13T17:40:27;5.40;;;2.28;;
59788;SDS011;47353;51.614;5.530;2022-09-13T17:42:54;5.63;;;2.38;;
59788;SDS011;47353;51.614;5.530;2022-09-13T17:45:21;4.88;;;2.30;;
59788;SDS011;47353;51.614;5.530;2022-09-13T17:47:46;5.25;;;2.40;;
59788;SDS011;47353;51.614;5.530;2022-09-13T17:50:12;4.90;;;2.08;;
59788;SDS011;47353;51.614;5.530;2022-09-13T17:52:38;4.18;;;1.80;;
59788;SDS011;47353;51.614;5.530;2022-09-13T17:55:04;6.20;;;1.92;;
59788;SDS011;47353;51.614;5.530;2022-09-13T17:57:30;8.93;;;1.98;;
59788;SDS011;47353;51.614;5.530;2022-09-13T17:59:55;6.20;;;1.90;;
59788;SDS011;47353;51.614;5.530;2022-09-13T18:02:21;5.28;;;1.60;;
59788;SDS011;47353;51.614;5.530;2022-09-13T18:04:47;5.75;;;1.60;;
59788;SDS011;47353;51.614;5.530;2022-09-13T18:07:14;2.78;;;1.20;;
59788;SDS011;47353;51.614;5.530;2022-09-13T18:09:40;4.50;;;1.55;;
59788;SDS011;47353;51.614;5.530;2022-09-13T18:12:06;6.60;;;1.60;;
59788;SDS011;47353;51.614;5.530;2022-09-13T18:14:31;4.40;;;1.38;;
59788;SDS011;47353;51.614;5.530;2022-09-13T18:16:57;6.97;;;1.55;;
59788;SDS011;47353;51.614;5.530;2022-09-13T18:19:22;4.80;;;1.48;;
59788;SDS011;47353;51.614;5.530;2022-09-13T18:21:48;5.05;;;1.40;;
59788;SDS011;47353;51.614;5.530;2022-09-13T18:24:13;5.90;;;1.42;;
59788;SDS011;47353;51.614;5.530;2022-09-13T18:26:39;5.40;;;1.30;;
59788;SDS011;47353;51.614;5.530;2022-09-13T18:29:05;2.63;;;1.20;;
59788;SDS011;47353;51.614;5.530;2022-09-13T18:31:35;6.90;;;1.40;;
59788;SDS011;47353;51.614;5.530;2022-09-13T18:34:02;6.07;;;1.30;;
59788;SDS011;47353;51.614;5.530;2022-09-13T18:36:29;4.28;;;1.60;;
59788;SDS011;47353;51.614;5.530;2022-09-13T18:38:57;4.20;;;1.48;;
59788;SDS011;47353;51.614;5.530;2022-09-13T18:41:28;6.80;;;1.50;;